aviador You're here:

KPQL Decoded Metar

PASCAGOULA in MS, USA
Report Time2018-06-22 00:53:00
UTC Time2018-06-22 01:28:18
Flight Rules vfr VFR
WindCalm
Visibility9999 m
Phenomena:N/A
Clouds:N/A
Expected CloudBase > 1,200 ft AGL from Temp-Dew spread
CeilingNone
Temp26°C (ISA +11)
Dew Point23°C (84% RH)
QNH1013 hPa
Density Alt1,663 ft
Elevation20 ft
Report Wrong Elevation
Raw Report
KPQL 220053Z 00000KT 10SM CLR 26/23 A2990 RMK AO2 SLP127
T02560228=

Extra information for KPQL:More info

Metar Taf Metar & Taf Last 4 Metars F.Rules Stats Wind Profile Meteogram Temp Stats Airport Information Weather charts Add Link Nearby VenuesMetar ALERT Operation Metar Decoded Social comments

AIRNAV info for KPQL